Time;durP1;ratioP1;P1;durP2;ratioP2;P2;SDS_P1;SDS_P2;PMS_P1;PMS_P2;Temp;Humidity;BMP_temperature;BMP_pressure;BME280_temperature;BME280_humidity;BME280_pressure;Samples;Min_cycle;Max_cycle;Signal;HPM_P1;HPM_P2
2022/11/17 00:00:25;;;;;;;0.00;0.00;;;;;;;9.88;99.57;96803.81;4927301;29;20252;-54
2022/11/17 00:02:52;;;;;;;0.00;0.00;;;;;;;9.86;96.16;96794.56;4928918;29;20246;-54
2022/11/17 00:05:19;;;;;;;0.00;0.00;;;;;;;9.86;96.05;96797.97;4924552;29;20387;-53
2022/11/17 00:07:47;;;;;;;0.00;0.00;;;;;;;10.05;89.52;96790.47;4900336;29;20772;-54
2022/11/17 00:10:15;;;;;;;0.00;0.00;;;;;;;10.10;87.39;96779.44;4927208;29;20256;-55
2022/11/17 00:15:26;;;;;;;0.00;0.00;;;;;;;10.40;85.42;96779.19;4926835;29;20238;-55
2022/11/17 00:21:17;;;;;;;0.00;0.00;;;;;;;10.42;84.17;96770.19;4930383;29;20723;-56
2022/11/17 00:23:45;;;;;;;0.00;0.00;;;;;;;10.53;83.56;96768.81;4928487;29;20236;-54
2022/11/17 00:26:13;;;;;;;0.00;0.00;;;;;;;10.52;83.55;96756.78;4929032;29;20233;-54
2022/11/17 00:28:40;;;;;;;0.00;0.00;;;;;;;10.52;84.10;96740.34;4931203;29;20594;-55
2022/11/17 00:34:05;;;;;;;0.00;0.00;;;;;;;10.67;80.13;96751.38;4906879;29;20312;-56
2022/11/17 00:36:34;;;;;;;0.00;0.00;;;;;;;10.77;78.87;96751.00;4901862;29;20229;-54
2022/11/17 00:39:02;;;;;;;0.00;0.00;;;;;;;10.79;80.32;96746.41;4902430;29;20605;-55
2022/11/17 00:41:29;;;;;;;0.00;0.00;;;;;;;10.78;79.71;96736.97;4899371;29;20242;-54
2022/11/17 00:43:55;;;;;;;0.00;0.00;;;;;;;10.72;81.69;96732.53;4905460;29;20281;-56
2022/11/17 00:46:25;;;;;;;0.00;0.00;;;;;;;10.69;81.10;96725.09;4902199;29;20258;-55
2022/11/17 00:48:51;;;;;;;0.00;0.00;;;;;;;10.74;77.39;96717.50;4904807;29;20278;-56
2022/11/17 00:51:18;;;;;;;0.00;0.00;;;;;;;10.85;77.88;96716.06;4902966;29;20237;-56
2022/11/17 00:53:44;;;;;;;0.00;0.00;;;;;;;10.93;75.17;96719.31;4903965;29;20231;-56
2022/11/17 00:56:12;;;;;;;0.00;0.00;;;;;;;10.99;75.99;96699.41;4899677;29;20230;-56
2022/11/17 00:58:39;;;;;;;0.00;0.00;;;;;;;11.06;73.45;96700.22;4904952;29;20420;-56
2022/11/17 01:01:06;;;;;;;0.00;0.00;;;;;;;11.06;74.23;96683.78;4901534;29;20626;-56
2022/11/17 01:03:34;;;;;;;0.00;0.00;;;;;;;11.11;74.23;96683.97;4903460;29;20234;-56
2022/11/17 01:06:04;;;;;;;0.00;0.00;;;;;;;11.13;74.28;96681.94;4907754;29;20708;-55
2022/11/17 01:08:30;;;;;;;0.00;0.00;;;;;;;11.11;75.55;96677.94;4906313;29;20773;-55
2022/11/17 01:11:04;;;;;;;0.00;0.00;;;;;;;11.07;75.63;96675.72;4909971;29;20292;-55
2022/11/17 01:13:32;;;;;;;0.00;0.00;;;;;;;11.07;74.08;96660.06;4904680;29;20305;-55
2022/11/17 01:16:02;;;;;;;0.00;0.00;;;;;;;11.05;73.17;96656.84;4898127;29;20237;-56
2022/11/17 01:18:28;;;;;;;0.00;0.00;;;;;;;11.00;73.00;96643.59;4894702;29;20238;-55
2022/11/17 01:20:55;;;;;;;0.00;0.00;;;;;;;10.87;73.11;96633.97;4901052;29;20230;-56
2022/11/17 01:23:22;;;;;;;0.00;0.00;;;;;;;10.74;74.74;96623.53;4899092;29;20222;-56
2022/11/17 01:25:48;;;;;;;0.00;0.00;;;;;;;10.67;72.72;96626.13;4902457;29;20229;-55
2022/11/17 01:28:15;;;;;;;0.00;0.00;;;;;;;10.71;73.13;96619.50;4877231;29;20246;-54
2022/11/17 01:30:43;;;;;;;0.00;0.00;;;;;;;10.66;72.82;96632.34;4898212;29;20245;-55
2022/11/17 01:33:09;;;;;;;0.00;0.00;;;;;;;10.72;72.42;96613.28;4920722;29;20323;-55
2022/11/17 01:35:36;;;;;;;0.00;0.00;;;;;;;10.73;72.50;96601.06;4928946;29;20292;-54
2022/11/17 01:38:02;;;;;;;0.00;0.00;;;;;;;10.81;70.19;96594.81;4928940;29;20247;-53
2022/11/17 01:40:29;;;;;;;0.00;0.00;;;;;;;10.76;73.07;96590.22;4908169;29;20241;-54
2022/11/17 01:42:55;;;;;;;0.00;0.00;;;;;;;10.70;71.49;96570.94;4928170;29;20241;-55
2022/11/17 01:45:25;;;;;;;0.00;0.00;;;;;;;10.70;71.10;96570.94;4925282;29;20687;-55
2022/11/17 01:47:56;;;;;;;0.00;0.00;;;;;;;10.78;70.73;96569.94;4928217;29;20240;-55
2022/11/17 01:50:32;;;;;;;0.00;0.00;;;;;;;10.76;70.84;96577.97;4925795;29;20244;-54
2022/11/17 01:53:01;;;;;;;0.00;0.00;;;;;;;10.81;71.46;96579.97;4928176;29;20241;-56
2022/11/17 01:55:34;;;;;;;0.00;0.00;;;;;;;10.85;72.25;96556.88;4924895;29;20288;-53
2022/11/17 01:58:05;;;;;;;0.00;0.00;;;;;;;10.97;72.01;96536.97;4928387;29;20236;-56
2022/11/17 02:00:32;;;;;;;0.00;0.00;;;;;;;11.12;69.57;96539.34;4926253;28;20683;-53
2022/11/17 02:03:00;;;;;;;0.00;0.00;;;;;;;11.16;69.96;96543.13;4927337;28;20229;-54
2022/11/17 02:05:39;;;;;;;0.00;0.00;;;;;;;11.20;69.72;96546.94;4925740;29;20289;-56
2022/11/17 02:08:06;;;;;;;0.00;0.00;;;;;;;11.24;70.47;96534.28;4925790;29;21120;-56
2022/11/17 02:10:35;;;;;;;0.00;0.00;;;;;;;11.33;69.46;96538.28;4928732;29;20237;-56
2022/11/17 02:13:02;;;;;;;0.00;0.00;;;;;;;11.55;67.52;96540.59;4928744;29;20234;-56
2022/11/17 02:15:29;;;;;;;0.00;0.00;;;;;;;11.61;67.96;96542.38;4926057;29;20300;-55
2022/11/17 02:17:58;;;;;;;0.00;0.00;;;;;;;11.63;68.47;96553.41;4927898;29;20732;-54
2022/11/17 02:20:41;;;;;;;0.00;0.00;;;;;;;11.70;67.98;96553.38;4925698;29;20852;-53
2022/11/17 02:23:49;;;;;;;0.00;0.00;;;;;;;11.82;68.36;96561.34;4924162;29;20289;-56
2022/11/17 02:26:48;;;;;;;0.00;0.00;;;;;;;12.02;68.47;96573.53;4924788;28;20292;-55
2022/11/17 02:29:21;;;;;;;0.00;0.00;;;;;;;12.00;70.35;96576.38;4907875;28;20305;-54
2022/11/17 02:31:57;;;;;;;0.00;0.00;;;;;;;11.96;70.93;96583.78;4927765;28;20242;-54
2022/11/17 02:34:33;;;;;;;0.00;0.00;;;;;;;11.91;71.63;96603.75;4925317;29;20246;-55
2022/11/17 02:37:07;;;;;;;0.00;0.00;;;;;;;11.90;71.85;96597.69;4928338;28;20231;-55
2022/11/17 02:39:41;;;;;;;0.00;0.00;;;;;;;11.84;72.56;96598.53;4925564;28;20309;-55
2022/11/17 02:42:11;;;;;;;0.00;0.00;;;;;;;11.82;73.23;96600.53;4899870;28;20238;-55
2022/11/17 02:44:44;;;;;;;0.00;0.00;;;;;;;11.73;75.17;96596.56;4927471;29;20237;-53
2022/11/17 02:47:15;;;;;;;0.00;0.00;;;;;;;11.75;71.95;96584.91;4924949;28;20240;-56
2022/11/17 02:49:47;;;;;;;0.00;0.00;;;;;;;11.67;73.14;96567.63;4927100;29;20244;-55
2022/11/17 02:52:15;;;;;;;0.00;0.00;;;;;;;11.61;74.03;96563.28;4897723;28;20325;-55
2022/11/17 02:54:41;;;;;;;0.00;0.00;;;;;;;11.52;75.34;96556.69;4926999;29;20240;-55
2022/11/17 02:57:29;;;;;;;0.00;0.00;;;;;;;11.47;74.96;96535.59;4924445;28;20226;-55
2022/11/17 03:00:01;;;;;;;0.00;0.00;;;;;;;11.44;76.26;96538.63;4927216;29;20241;-55
2022/11/17 03:02:41;;;;;;;0.00;0.00;;;;;;;11.44;75.46;96543.84;4923598;28;20257;-54
2022/11/17 03:05:14;;;;;;;0.00;0.00;;;;;;;11.47;76.17;96572.97;4923967;28;20754;-56
2022/11/17 03:07:59;;;;;;;0.00;0.00;;;;;;;11.45;80.46;96554.09;4928054;29;20513;-55
2022/11/17 03:10:34;;;;;;;0.00;0.00;;;;;;;11.34;82.04;96562.56;4907898;29;20233;-55
2022/11/17 03:13:10;;;;;;;0.00;0.00;;;;;;;11.20;84.90;96585.31;4927491;29;20292;-54
2022/11/17 03:15:48;;;;;;;0.00;0.00;;;;;;;11.13;84.44;96567.03;4925020;29;20235;-54
2022/11/17 03:18:20;;;;;;;0.00;0.00;;;;;;;11.08;85.70;96559.84;4925210;29;20295;-55
2022/11/17 03:20:56;;;;;;;0.00;0.00;;;;;;;11.07;84.45;96566.06;4927555;29;20229;-55
2022/11/17 03:23:28;;;;;;;0.00;0.00;;;;;;;11.07;86.02;96554.84;4925098;29;20256;-54
2022/11/17 03:25:58;;;;;;;0.00;0.00;;;;;;;11.04;86.13;96550.81;4927632;29;20321;-53
2022/11/17 03:28:29;;;;;;;0.00;0.00;;;;;;;11.02;87.78;96557.25;4924637;28;20233;-55
2022/11/17 03:30:59;;;;;;;0.00;0.00;;;;;;;10.99;90.10;96562.88;4931618;28;20681;-55
2022/11/17 03:33:27;;;;;;;0.00;0.00;;;;;;;10.91;91.59;96567.31;4910060;29;20285;-53
2022/11/17 03:36:00;;;;;;;0.00;0.00;;;;;;;10.85;91.54;96547.25;4912337;29;20600;-55
2022/11/17 03:38:30;;;;;;;0.00;0.00;;;;;;;10.85;92.39;96547.25;4910454;29;20238;-55
2022/11/17 03:41:00;;;;;;;0.00;0.00;;;;;;;10.80;94.22;96567.94;4914481;29;20390;-55
2022/11/17 03:43:29;;;;;;;0.00;0.00;;;;;;;10.85;93.32;96562.09;4909703;29;20337;-54
2022/11/17 03:46:02;;;;;;;0.00;0.00;;;;;;;10.86;93.84;96561.09;4912551;29;20274;-55
2022/11/17 03:48:35;;;;;;;0.00;0.00;;;;;;;10.84;95.04;96545.66;4910417;29;20230;-53
2022/11/17 03:51:08;;;;;;;0.00;0.00;;;;;;;10.89;94.84;96548.44;4914043;29;20238;-56
2022/11/17 03:53:35;;;;;;;0.00;0.00;;;;;;;10.87;97.60;96578.34;4910200;29;20603;-53
2022/11/17 03:56:10;;;;;;;0.00;0.00;;;;;;;10.80;99.27;96573.16;4913487;29;20282;-55
2022/11/17 03:58:45;;;;;;;0.00;0.00;;;;;;;10.73;100.00;96583.59;4910156;29;20243;-53
2022/11/17 04:01:14;;;;;;;0.00;0.00;;;;;;;10.70;100.00;96591.03;4908657;29;20284;-53
2022/11/17 04:03:41;;;;;;;0.00;0.00;;;;;;;10.69;100.00;96582.38;4911830;29;20675;-53
2022/11/17 04:06:08;;;;;;;0.00;0.00;;;;;;;10.67;100.00;96594.03;4908649;29;20719;-55
2022/11/17 04:08:34;;;;;;;0.00;0.00;;;;;;;10.61;100.00;96600.84;4912730;29;20648;-53
2022/11/17 04:16:30;;;;;;;0.00;0.00;;;;;;;10.56;100.00;96600.66;4910487;29;20240;-54
2022/11/17 04:18:57;;;;;;;0.00;0.00;;;;;;;10.66;100.00;96588.00;4912733;29;20284;-54
2022/11/17 04:21:24;;;;;;;0.00;0.00;;;;;;;10.60;100.00;96591.44;4909683;29;20245;-56
2022/11/17 04:23:50;;;;;;;0.00;0.00;;;;;;;10.56;100.00;96601.47;4911851;29;20304;-55
2022/11/17 04:29:01;;;;;;;0.00;0.00;;;;;;;10.51;100.00;96601.25;4912462;29;20256;-55
2022/11/17 04:31:33;;;;;;;0.00;0.00;;;;;;;10.46;100.00;96573.19;5108215;23;20724;-61
2022/11/17 04:34:01;;;;;;;0.00;0.00;;;;;;;10.41;100.00;96570.38;4905673;29;20600;-61
2022/11/17 04:36:30;;;;;;;0.00;0.00;;;;;;;10.44;100.00;96574.38;4888568;29;20233;-61
2022/11/17 04:38:58;;;;;;;0.00;0.00;;;;;;;10.49;100.00;96571.97;4900042;29;20372;-60
2022/11/17 04:44:13;;;;;;;0.00;0.00;;;;;;;10.64;100.00;96569.13;4884556;29;20239;-61
2022/11/17 04:46:43;;;;;;;0.00;0.00;;;;;;;10.73;100.00;96562.72;4881934;29;20249;-61
2022/11/17 04:49:09;;;;;;;0.00;0.00;;;;;;;10.83;99.88;96556.28;4879750;29;20317;-61
2022/11/17 04:51:36;;;;;;;0.00;0.00;;;;;;;10.86;98.81;96555.88;4898774;29;20238;-61
2022/11/17 04:54:04;;;;;;;0.00;0.00;;;;;;;10.88;98.72;96551.25;4896737;29;20925;-61
2022/11/17 04:56:34;;;;;;;0.00;0.00;;;;;;;10.92;97.46;96536.78;4896844;29;20241;-61
2022/11/17 04:59:01;;;;;;;0.00;0.00;;;;;;;10.95;97.94;96546.81;4900163;29;20289;-60
2022/11/17 05:01:28;;;;;;;0.00;0.00;;;;;;;10.98;96.46;96553.44;4890959;29;20600;-60
2022/11/17 05:03:58;;;;;;;0.00;0.00;;;;;;;11.00;96.51;96554.84;4881007;29;20594;-61
2022/11/17 05:06:27;;;;;;;0.00;0.00;;;;;;;11.04;96.29;96550.03;4883282;29;20708;-60
2022/11/17 05:08:55;;;;;;;0.00;0.00;;;;;;;11.00;97.14;96569.72;4899817;29;20231;-61
2022/11/17 05:14:07;;;;;;;0.00;0.00;;;;;;;10.98;94.92;96559.47;4893106;29;20333;-61
2022/11/17 05:19:21;;;;;;;0.00;0.00;;;;;;;11.03;93.02;96570.09;4889294;29;20900;-60
2022/11/17 05:21:48;;;;;;;0.00;0.00;;;;;;;11.05;91.32;96567.28;4893954;29;20285;-61
2022/11/17 05:24:14;;;;;;;0.00;0.00;;;;;;;11.06;92.50;96574.91;4878169;29;20296;-61
2022/11/17 05:26:42;;;;;;;0.00;0.00;;;;;;;11.09;91.07;96550.22;4887714;29;20693;-61
2022/11/17 05:29:10;;;;;;;0.00;0.00;;;;;;;11.07;92.72;96549.63;4878469;29;20237;-61
2022/11/17 05:31:37;;;;;;;0.00;0.00;;;;;;;11.13;91.65;96548.75;4880830;29;20785;-61
2022/11/17 05:34:06;;;;;;;0.00;0.00;;;;;;;11.16;90.89;96547.56;4878238;29;20231;-61
2022/11/17 05:36:34;;;;;;;0.00;0.00;;;;;;;11.19;89.64;96553.16;4875826;29;20647;-61
2022/11/17 05:39:01;;;;;;;0.00;0.00;;;;;;;11.23;89.82;96567.41;4881728;29;20245;-62
2022/11/17 05:41:28;;;;;;;0.00;0.00;;;;;;;11.23;89.40;96564.81;4873689;29;20242;-62
2022/11/17 05:43:56;;;;;;;0.00;0.00;;;;;;;11.27;87.10;96551.34;4888648;29;20239;-60
2022/11/17 05:46:23;;;;;;;0.00;0.00;;;;;;;11.30;86.61;96558.75;4876009;29;20246;-60
2022/11/17 05:48:50;;;;;;;0.00;0.00;;;;;;;11.30;87.41;96567.41;4875626;29;20240;-60
2022/11/17 05:51:18;;;;;;;0.00;0.00;;;;;;;11.31;85.26;96569.00;4879641;29;20239;-60
2022/11/17 05:53:49;;;;;;;0.00;0.00;;;;;;;11.41;84.86;96581.63;4878726;29;20326;-63
2022/11/17 05:56:28;;;;;;;0.00;0.00;;;;;;;11.37;85.75;96581.25;4874061;29;20242;-60
2022/11/17 05:59:00;;;;;;;0.00;0.00;;;;;;;11.48;82.98;96576.41;4876476;29;20239;-60
2022/11/17 06:01:28;;;;;;;0.00;0.00;;;;;;;11.48;83.53;96574.56;4875582;29;20711;-60
2022/11/17 06:03:59;;;;;;;0.00;0.00;;;;;;;11.43;83.79;96584.06;4875097;29;20231;-60
2022/11/17 06:06:26;;;;;;;0.00;0.00;;;;;;;11.51;81.93;96574.16;4875125;29;20295;-59
2022/11/17 06:08:54;;;;;;;0.00;0.00;;;;;;;11.45;83.74;96574.97;4873514;29;20258;-60
2022/11/17 06:11:20;;;;;;;0.00;0.00;;;;;;;11.44;83.07;96569.97;4877168;29;20244;-60
2022/11/17 06:13:47;;;;;;;0.00;0.00;;;;;;;11.36;84.54;96577.03;4893269;29;20243;-60
2022/11/17 06:16:18;;;;;;;0.00;0.00;;;;;;;11.40;82.09;96574.00;4884002;29;20243;-60
2022/11/17 06:18:48;;;;;;;0.00;0.00;;;;;;;11.33;83.80;96574.84;4878373;29;20276;-60
2022/11/17 06:21:16;;;;;;;0.00;0.00;;;;;;;11.36;82.78;96563.97;4873013;29;20242;-60
2022/11/17 06:23:46;;;;;;;0.00;0.00;;;;;;;11.32;83.29;96534.06;4881055;29;20228;-60
2022/11/17 06:26:14;;;;;;;0.00;0.00;;;;;;;11.32;83.85;96502.72;4881354;29;20230;-60
2022/11/17 06:28:44;;;;;;;0.00;0.00;;;;;;;11.32;83.96;96515.78;4891206;29;20599;-60
2022/11/17 06:31:11;;;;;;;0.00;0.00;;;;;;;11.33;83.75;96559.16;4885075;29;20232;-62
2022/11/17 06:33:38;;;;;;;0.00;0.00;;;;;;;11.30;83.21;96559.56;4897452;29;20249;-60
2022/11/17 06:36:07;;;;;;;0.00;0.00;;;;;;;11.28;82.51;96586.91;4895732;29;20224;-60
2022/11/17 06:38:34;;;;;;;0.00;0.00;;;;;;;11.53;80.09;96584.41;4896688;29;20233;-60
2022/11/17 06:41:02;;;;;;;0.00;0.00;;;;;;;11.65;76.85;96582.75;4898546;29;20294;-60
2022/11/17 06:43:30;;;;;;;0.00;0.00;;;;;;;11.77;77.89;96587.31;4895444;29;20236;-60
2022/11/17 06:45:56;;;;;;;0.00;0.00;;;;;;;11.83;76.41;96573.41;4899314;29;20306;-61
2022/11/17 06:48:25;;;;;;;0.00;0.00;;;;;;;11.85;77.57;96573.22;4895634;29;20246;-61
2022/11/17 06:50:52;;;;;;;0.00;0.00;;;;;;;11.81;76.98;96565.78;4869250;29;20602;-60
2022/11/17 06:53:19;;;;;;;0.00;0.00;;;;;;;11.76;77.35;96565.59;4889453;29;20543;-61
2022/11/17 06:55:47;;;;;;;0.00;0.00;;;;;;;11.82;76.01;96583.06;4891197;29;20246;-60
2022/11/17 06:58:14;;;;;;;0.00;0.00;;;;;;;11.82;75.58;96577.03;4880187;29;20837;-61
2022/11/17 07:00:42;;;;;;;0.00;0.00;;;;;;;11.85;75.54;96586.28;4876000;29;20235;-59
2022/11/17 07:03:10;;;;;;;0.00;0.00;;;;;;;11.81;75.30;96588.50;4876221;29;20240;-58
2022/11/17 07:05:38;;;;;;;0.00;0.00;;;;;;;11.80;75.50;96585.09;4893610;29;20239;-59
2022/11/17 07:08:07;;;;;;;0.00;0.00;;;;;;;11.87;76.65;96595.50;4892003;29;20298;-58
2022/11/17 07:10:34;;;;;;;0.00;0.00;;;;;;;11.92;75.36;96587.03;4894395;29;20642;-59
2022/11/17 07:13:01;;;;;;;0.00;0.00;;;;;;;11.94;76.39;96591.03;4900227;29;20245;-59
2022/11/17 07:15:27;;;;;;;0.00;0.00;;;;;;;11.95;75.95;96592.63;4882658;29;20253;-59
2022/11/17 07:17:57;;;;;;;0.00;0.00;;;;;;;11.95;75.33;96602.31;4881019;29;20233;-59
2022/11/17 07:20:23;;;;;;;0.00;0.00;;;;;;;12.00;75.32;96592.06;4886234;29;20247;-59
2022/11/17 07:22:50;;;;;;;0.00;0.00;;;;;;;11.99;75.29;96587.00;4888057;29;20243;-59
2022/11/17 07:25:17;;;;;;;0.00;0.00;;;;;;;12.02;75.88;96590.03;4889534;29;20239;-59
2022/11/17 07:27:43;;;;;;;0.00;0.00;;;;;;;12.01;75.51;96593.66;4897076;29;20243;-59
2022/11/17 07:30:13;;;;;;;0.00;0.00;;;;;;;11.96;77.01;96594.25;4893002;29;20235;-59
2022/11/17 07:32:40;;;;;;;0.00;0.00;;;;;;;12.00;76.50;96592.06;4891436;29;20634;-59
2022/11/17 07:35:09;;;;;;;0.00;0.00;;;;;;;11.99;75.93;96595.66;4898378;29;20310;-59
2022/11/17 07:37:35;;;;;;;0.00;0.00;;;;;;;11.91;77.73;96599.28;4901676;29;20250;-59
2022/11/17 07:40:02;;;;;;;0.00;0.00;;;;;;;11.91;77.73;96604.53;4899328;29;20313;-59
2022/11/17 07:42:28;;;;;;;0.00;0.00;;;;;;;11.96;78.60;96617.00;4895160;29;20252;-59
2022/11/17 07:44:57;;;;;;;0.00;0.00;;;;;;;12.00;78.62;96606.94;4899952;29;20249;-60
2022/11/17 07:47:23;;;;;;;0.00;0.00;;;;;;;11.96;77.55;96614.38;4896649;29;20228;-59
2022/11/17 07:49:50;;;;;;;0.00;0.00;;;;;;;11.93;79.11;96631.25;4901314;29;20293;-59
2022/11/17 07:52:18;;;;;;;0.00;0.00;;;;;;;11.91;80.66;96637.72;4893498;29;20251;-59
2022/11/17 07:54:45;;;;;;;0.00;0.00;;;;;;;11.95;78.44;96641.53;4900231;29;20250;-59
2022/11/17 07:57:11;;;;;;;0.00;0.00;;;;;;;11.96;79.40;96636.06;4898596;29;20235;-59
2022/11/17 07:59:38;;;;;;;0.00;0.00;;;;;;;12.08;77.66;96646.72;4899771;29;20266;-59
2022/11/17 08:02:04;;;;;;;0.00;0.00;;;;;;;12.03;78.69;96649.16;4896642;29;20262;-59
2022/11/17 08:04:31;;;;;;;0.00;0.00;;;;;;;11.96;78.23;96651.75;4884242;29;20242;-59
2022/11/17 08:06:57;;;;;;;0.00;0.00;;;;;;;11.95;78.13;96654.59;4897175;29;20232;-59
2022/11/17 08:09:25;;;;;;;0.00;0.00;;;;;;;12.01;76.97;96676.50;4891444;29;20269;-60
2022/11/17 08:11:52;;;;;;;0.00;0.00;;;;;;;11.95;76.65;96673.69;4899237;29;20241;-59
2022/11/17 08:14:19;;;;;;;0.00;0.00;;;;;;;12.03;75.44;96677.09;4895942;29;20702;-59
2022/11/17 08:16:45;;;;;;;0.00;0.00;;;;;;;11.97;74.96;96673.50;4898331;29;20771;-58
2022/11/17 08:19:13;;;;;;;0.00;0.00;;;;;;;12.03;73.65;96684.94;4900546;29;20237;-59
2022/11/17 08:21:40;;;;;;;0.00;0.00;;;;;;;12.05;73.13;96664.63;4899770;29;20364;-59
2022/11/17 08:24:07;;;;;;;0.00;0.00;;;;;;;12.12;72.68;96694.16;4896295;29;20619;-59
2022/11/17 08:26:35;;;;;;;0.00;0.00;;;;;;;12.20;71.35;96675.63;4901029;29;20240;-59
2022/11/17 08:29:02;;;;;;;0.00;0.00;;;;;;;12.16;73.34;96679.66;4899123;29;20229;-59
2022/11/17 08:31:28;;;;;;;0.00;0.00;;;;;;;12.09;72.45;96695.41;4890002;29;20315;-60
2022/11/17 08:33:55;;;;;;;0.00;0.00;;;;;;;12.17;70.39;96685.72;4881674;29;20242;-59
2022/11/17 08:36:21;;;;;;;0.00;0.00;;;;;;;12.16;73.14;96690.13;4876712;29;20235;-59
2022/11/17 08:38:48;;;;;;;0.00;0.00;;;;;;;12.13;70.99;96679.28;4878866;29;20241;-58
2022/11/17 08:41:14;;;;;;;0.00;0.00;;;;;;;12.08;73.52;96685.94;4878071;29;20315;-60
2022/11/17 08:43:42;;;;;;;0.00;0.00;;;;;;;12.04;72.04;96702.25;4879484;29;20248;-60
2022/11/17 08:46:11;;;;;;;0.00;0.00;;;;;;;12.13;70.83;96690.53;4876986;29;20244;-60
2022/11/17 08:48:37;;;;;;;0.00;0.00;;;;;;;12.04;71.74;96695.22;4864580;29;20240;-59
2022/11/17 08:51:06;;;;;;;0.00;0.00;;;;;;;12.00;71.75;96706.28;4882390;29;20766;-60
2022/11/17 08:53:32;;;;;;;0.00;0.00;;;;;;;11.96;71.83;96693.59;4877160;29;20238;-60
2022/11/17 08:55:59;;;;;;;0.00;0.00;;;;;;;11.98;72.53;96705.66;4878200;29;20881;-60
2022/11/17 08:58:26;;;;;;;0.00;0.00;;;;;;;11.96;72.14;96709.28;4875747;29;20235;-60
2022/11/17 09:00:56;;;;;;;0.00;0.00;;;;;;;11.94;72.54;96700.06;4878719;29;20239;-60
2022/11/17 09:03:23;;;;;;;0.00;0.00;;;;;;;11.98;70.64;96703.03;4879173;29;20709;-60
2022/11/17 09:05:50;;;;;;;0.00;0.00;;;;;;;12.06;70.55;96701.06;4878549;29;20236;-59
2022/11/17 09:08:16;;;;;;;0.00;0.00;;;;;;;12.05;69.25;96688.97;4874505;29;20795;-60
2022/11/17 09:10:48;;;;;;;0.00;0.00;;;;;;;12.04;71.63;96695.22;4875127;29;20250;-59
2022/11/17 09:13:14;;;;;;;0.00;0.00;;;;;;;12.01;71.11;96698.25;4877972;29;20324;-58
2022/11/17 09:15:41;;;;;;;0.00;0.00;;;;;;;11.95;70.11;96717.34;4870378;29;20243;-58
2022/11/17 09:18:09;;;;;;;0.00;0.00;;;;;;;11.90;70.99;96715.34;4880531;29;20246;-57
2022/11/17 09:20:36;;;;;;;0.00;0.00;;;;;;;11.95;71.52;96731.22;4875446;29;20244;-58
2022/11/17 09:23:02;;;;;;;0.00;0.00;;;;;;;11.96;69.68;96726.81;4877404;29;20250;-58
2022/11/17 09:25:29;;;;;;;0.00;0.00;;;;;;;12.01;68.52;96741.88;4873410;29;20263;-58
2022/11/17 09:27:56;;;;;;;0.00;0.00;;;;;;;12.11;67.15;96723.94;4880062;29;20238;-59
2022/11/17 09:30:23;;;;;;;0.00;0.00;;;;;;;12.06;68.37;96723.75;4875252;29;20729;-58
2022/11/17 09:32:50;;;;;;;0.00;0.00;;;;;;;12.02;70.08;96728.63;4874591;29;20249;-58
2022/11/17 09:35:18;;;;;;;0.00;0.00;;;;;;;12.06;69.10;96729.00;4875857;29;20254;-58
2022/11/17 09:37:46;;;;;;;0.00;0.00;;;;;;;12.01;69.45;96742.69;4879703;29;20232;-59
2022/11/17 09:40:15;;;;;;;0.00;0.00;;;;;;;12.02;69.12;96746.09;4876028;29;20236;-59
2022/11/17 09:42:42;;;;;;;0.00;0.00;;;;;;;12.07;70.38;96743.69;4880000;29;20300;-59
2022/11/17 09:45:15;;;;;;;0.00;0.00;;;;;;;12.21;68.44;96752.25;4877147;29;20773;-60
2022/11/17 09:47:45;;;;;;;0.00;0.00;;;;;;;12.27;68.44;96746.19;4878012;29;20812;-59
2022/11/17 09:50:22;;;;;;;0.00;0.00;;;;;;;12.27;68.11;96746.19;4877051;29;20232;-59
2022/11/17 09:52:55;;;;;;;0.00;0.00;;;;;;;12.24;68.22;96747.44;4880147;29;20331;-59
2022/11/17 09:55:26;;;;;;;0.00;0.00;;;;;;;12.24;67.41;96751.84;4872758;29;20243;-59
2022/11/17 09:58:00;;;;;;;0.00;0.00;;;;;;;12.45;67.31;96742.91;4874718;29;20242;-58
2022/11/17 10:00:28;;;;;;;0.00;0.00;;;;;;;12.44;67.11;96757.00;4876219;29;20243;-58
2022/11/17 10:02:55;;;;;;;0.00;0.00;;;;;;;12.45;67.85;96766.47;4879215;29;20228;-59
2022/11/17 10:05:28;;;;;;;0.00;0.00;;;;;;;12.39;67.91;96762.06;4874366;29;20319;-59
2022/11/17 10:07:58;;;;;;;0.00;0.00;;;;;;;12.21;67.97;96749.66;4877057;29;20718;-59
2022/11/17 10:10:34;;;;;;;0.00;0.00;;;;;;;12.32;66.47;96756.06;4879107;29;20247;-58
2022/11/17 10:13:02;;;;;;;0.00;0.00;;;;;;;12.09;68.22;96752.13;4881618;29;20258;-58
2022/11/17 10:15:33;;;;;;;0.00;0.00;;;;;;;11.95;68.80;96756.56;4878227;29;20243;-59
2022/11/17 10:17:59;;;;;;;0.00;0.00;;;;;;;11.85;70.37;96746.53;4878421;29;20235;-58
2022/11/17 10:20:27;;;;;;;0.00;0.00;;;;;;;11.80;70.19;96756.78;4875828;29;20239;-60
2022/11/17 10:22:55;;;;;;;0.00;0.00;;;;;;;11.82;69.82;96760.81;4879943;29;20824;-58
2022/11/17 10:25:38;;;;;;;0.00;0.00;;;;;;;11.87;70.26;96767.25;4875511;29;20240;-58
2022/11/17 10:28:06;;;;;;;0.00;0.00;;;;;;;11.96;69.41;96763.41;4879064;29;20244;-58
2022/11/17 10:30:33;;;;;;;0.00;0.00;;;;;;;12.00;69.37;96748.94;4876852;29;20382;-59
2022/11/17 10:33:02;;;;;;;0.00;0.00;;;;;;;11.94;69.80;96753.13;4880158;29;20289;-59
2022/11/17 10:35:32;;;;;;;0.00;0.00;;;;;;;12.06;71.13;96768.22;4877475;29;20247;-58
2022/11/17 10:38:00;;;;;;;0.00;0.00;;;;;;;12.16;68.88;96763.34;4876551;29;20239;-59
2022/11/17 10:40:30;;;;;;;0.00;0.00;;;;;;;12.14;70.22;96782.91;4867558;29;20233;-58
2022/11/17 10:43:16;;;;;;;0.00;0.00;;;;;;;12.31;72.30;96778.78;4878305;29;20255;-58
2022/11/17 10:45:43;;;;;;;0.00;0.00;;;;;;;12.41;72.97;96775.75;4864497;29;20235;-58
2022/11/17 10:48:19;;;;;;;0.00;0.00;;;;;;;12.46;72.03;96775.94;4875742;29;20226;-58
2022/11/17 10:50:53;;;;;;;0.00;0.00;;;;;;;12.31;73.60;96786.63;4875799;29;20715;-59
2022/11/17 10:53:24;;;;;;;0.00;0.00;;;;;;;12.07;75.08;96782.91;4877635;29;20231;-58
2022/11/17 10:55:57;;;;;;;0.00;0.00;;;;;;;12.07;73.75;96801.22;4880502;29;20242;-59
2022/11/17 10:58:26;;;;;;;0.00;0.00;;;;;;;12.00;75.39;96810.88;4873304;29;20244;-58
2022/11/17 11:00:54;;;;;;;0.00;0.00;;;;;;;12.07;76.79;96798.59;4875433;29;20287;-58
2022/11/17 11:03:23;;;;;;;0.00;0.00;;;;;;;11.79;80.99;96799.63;4873393;29;20244;-59
2022/11/17 11:06:04;;;;;;;0.00;0.00;;;;;;;11.75;83.25;96790.56;4877650;29;20283;-59
2022/11/17 11:08:38;;;;;;;0.00;0.00;;;;;;;11.82;83.38;96791.38;4873282;29;20246;-59
2022/11/17 11:11:11;;;;;;;0.00;0.00;;;;;;;11.98;82.85;96789.34;4873929;29;20251;-59
2022/11/17 11:13:43;;;;;;;0.00;0.00;;;;;;;11.94;83.86;96776.66;4874092;29;20284;-58
2022/11/17 11:16:11;;;;;;;0.00;0.00;;;;;;;11.94;84.05;96784.50;4876067;29;20242;-58
2022/11/17 11:18:38;;;;;;;0.00;0.00;;;;;;;12.02;83.04;96786.16;4875070;29;20246;-58
2022/11/17 11:21:15;;;;;;;0.00;0.00;;;;;;;12.10;83.58;96775.47;4872489;29;20323;-59
2022/11/17 11:23:50;;;;;;;0.00;0.00;;;;;;;12.19;81.19;96785.69;4872643;29;20236;-59
2022/11/17 11:26:36;;;;;;;0.00;0.00;;;;;;;12.47;78.73;96774.91;4875789;29;20230;-59
2022/11/17 11:29:20;;;;;;;0.00;0.00;;;;;;;12.37;76.98;96764.09;4876969;29;20327;-59
2022/11/17 11:32:00;;;;;;;0.00;0.00;;;;;;;12.54;77.31;96762.59;4878997;29;20346;-58
2022/11/17 11:34:52;;;;;;;0.00;0.00;;;;;;;12.43;76.10;96775.53;4884656;29;20232;-59
2022/11/17 11:37:26;;;;;;;0.00;0.00;;;;;;;12.51;75.40;96762.19;4875790;29;20711;-58
2022/11/17 11:39:59;;;;;;;0.00;0.00;;;;;;;12.34;73.85;96762.69;4875918;29;20583;-59
2022/11/17 11:42:44;;;;;;;0.00;0.00;;;;;;;12.45;76.73;96770.88;4875779;29;20278;-58
2022/11/17 11:45:20;;;;;;;0.00;0.00;;;;;;;12.53;75.73;96774.06;4872880;29;20343;-59
2022/11/17 11:48:19;;;;;;;0.00;0.00;;;;;;;12.48;76.67;96776.53;4896423;29;20706;-58
2022/11/17 11:50:54;;;;;;;0.00;0.00;;;;;;;12.22;75.78;96775.63;4874733;29;20563;-59
2022/11/17 11:53:42;;;;;;;0.00;0.00;;;;;;;12.36;76.64;96758.03;4891121;29;20234;-59
2022/11/17 11:56:15;;;;;;;0.00;0.00;;;;;;;12.51;74.88;96770.88;4894092;29;20248;-59
2022/11/17 11:58:46;;;;;;;0.00;0.00;;;;;;;12.52;76.80;96761.19;4896778;29;20262;-59
2022/11/17 12:01:16;;;;;;;0.00;0.00;;;;;;;12.62;73.84;96772.00;4893807;29;20859;-58
2022/11/17 12:03:50;;;;;;;0.00;0.00;;;;;;;12.79;76.55;96745.34;4896658;29;20239;-59
2022/11/17 12:06:40;;;;;;;0.00;0.00;;;;;;;12.72;73.53;96763.69;4899203;29;20295;-58
2022/11/17 12:09:48;;;;;;;0.00;0.00;;;;;;;12.63;74.23;96752.69;4896199;29;20714;-59
2022/11/17 12:12:17;;;;;;;0.00;0.00;;;;;;;12.65;74.91;96737.56;4839851;29;20637;-58